RKSO/OSN METAR and TAF weather

Enter ICAO airport designator
Station Type Date Time Source
RKSO METAR 2020/01/20 18:58 UTC NOAA

RKSO 201858Z 00000KT 7SM CLR M06/M11 A3039 RMK AO2A SLP295 T10601110 $


Station Type Date Time Source
RKSO Decoded METAR 2020/01/20 18:58 UTC NOAA

Osan Ab, Korea, South (RKSO) 37-06N 127-02E 12M
Jan 20, 2020 - 01:58 PM EST / 2020.01.20 1858 UTC
Wind: Calm:0
Visibility: 7 mile(s):0
Sky conditions: clear
Temperature: 21.2 F (-6.0 C)
Dew Point: 12.2 F (-11.0 C)
Relative Humidity: 67%
Pressure (altimeter): 30.39 in. Hg (1029 hPa)
ob: RKSO 201858Z 00000KT 7SM CLR M06/M11 A3039 RMK AO2A SLP295 T10601110
cycle: 19

Station Type Date Time Source
RKSO TAF 2020/01/20 17:12 UTC NOAA

TAF TAF RKSO 201700Z 2017/2123 30006KT 9999 FEW030 QNH3030INS TX06/2107Z TNM05/2023Z

Example: see airport list